Time;durP1;ratioP1;P1;durP2;ratioP2;P2;SDS_P1;SDS_P2;PMS_P1;PMS_P2;Temp;Humidity;BMP_temperature;BMP_pressure;BME280_temperature;BME280_humidity;BME280_pressure;Samples;Min_cycle;Max_cycle;Signal;HPM_P1;HPM_P2
2022/10/01 00:07:35;;;;;;;0.47;0.40;;;7.80;99.90;;;;;;21058794;28;20358;-49
2022/10/01 00:17:38;;;;;;;0.82;0.30;;;7.80;99.90;;;;;;21057248;28;20151;-49
2022/10/01 00:27:45;;;;;;;0.60;0.40;;;7.80;99.90;;;;;;21056921;28;20121;-52
2022/10/01 00:37:51;;;;;;;0.85;0.40;;;7.70;99.90;;;;;;21098333;28;20051;-49
2022/10/01 00:47:56;;;;;;;0.43;0.20;;;7.70;99.90;;;;;;21157102;28;20036;-52
2022/10/01 00:58:00;;;;;;;1.08;0.10;;;7.70;99.90;;;;;;21140173;28;20032;-53
2022/10/01 01:08:03;;;;;;;0.10;0.10;;;7.70;99.90;;;;;;21151144;28;20437;-50
2022/10/01 01:18:08;;;;;;;0.20;0.13;;;7.80;99.90;;;;;;21154636;28;20032;-52
2022/10/01 01:28:30;;;;;;;0.30;0.10;;;7.80;99.90;;;;;;21154131;28;20031;-50
2022/10/01 01:38:39;;;;;;;0.75;0.20;;;7.60;99.90;;;;;;21152704;28;20043;-49
2022/10/01 01:48:46;;;;;;;1.75;0.20;;;7.20;99.90;;;;;;21152062;28;20035;-59
2022/10/01 01:58:49;;;;;;;0.60;0.45;;;6.80;99.90;;;;;;21151766;28;20047;-49
2022/10/01 02:09:15;;;;;;;0.52;0.30;;;6.30;99.90;;;;;;21150504;28;20035;-52
2022/10/01 02:19:43;;;;;;;0.30;0.28;;;6.00;99.90;;;;;;21148847;28;20039;-48
2022/10/01 02:29:49;;;;;;;0.60;0.40;;;5.80;99.90;;;;;;21116262;28;20035;-49
2022/10/01 02:39:55;;;;;;;2.55;0.65;;;5.60;99.90;;;;;;21147947;28;20508;-50
2022/10/01 02:49:58;;;;;;;0.90;0.65;;;5.50;99.90;;;;;;21146800;28;20032;-51
2022/10/01 03:00:08;;;;;;;1.85;0.75;;;5.40;99.90;;;;;;21146652;28;20092;-52
2022/10/01 03:10:13;;;;;;;1.63;0.50;;;5.50;99.90;;;;;;21145770;28;20035;-51
2022/10/01 03:20:16;;;;;;;0.80;0.30;;;5.40;99.90;;;;;;21145361;28;20084;-51
2022/10/01 03:30:18;;;;;;;1.85;0.22;;;5.40;99.90;;;;;;21145046;28;20032;-60
2022/10/01 03:40:21;;;;;;;0.28;0.20;;;5.40;99.90;;;;;;21143836;28;20105;-51
2022/10/01 03:50:23;;;;;;;0.50;0.35;;;5.40;99.90;;;;;;21143279;28;20088;-51
2022/10/01 04:00:26;;;;;;;1.13;0.50;;;5.30;99.90;;;;;;21143378;28;20081;-50
2022/10/01 04:10:29;;;;;;;0.43;0.28;;;5.10;99.90;;;;;;21141842;28;20065;-49
2022/10/01 04:20:34;;;;;;;1.25;0.40;;;5.20;99.90;;;;;;21141650;28;20039;-48
2022/10/01 04:30:39;;;;;;;0.95;0.43;;;5.10;99.90;;;;;;21129999;28;20549;-48
2022/10/01 04:40:43;;;;;;;2.15;0.52;;;5.10;99.90;;;;;;21196049;27;20096;-51
2022/10/01 04:50:46;;;;;;;0.85;0.20;;;5.10;99.90;;;;;;21186151;27;20037;-51
2022/10/01 05:00:50;;;;;;;2.88;0.60;;;5.00;99.90;;;;;;21242941;27;20096;-59
2022/10/01 05:10:53;;;;;;;0.63;0.40;;;5.00;99.90;;;;;;21241065;27;20035;-52
2022/10/01 05:20:55;;;;;;;1.48;0.88;;;5.30;99.90;;;;;;21232292;27;20065;-50
2022/10/01 05:31:02;;;;;;;0.95;0.57;;;5.30;99.90;;;;;;21241569;27;20034;-49
2022/10/01 05:41:05;;;;;;;0.90;0.57;;;5.30;99.90;;;;;;21171147;28;20489;-51
2022/10/01 05:51:07;;;;;;;0.75;0.40;;;5.50;99.90;;;;;;21151640;28;20271;-51
2022/10/01 06:01:10;;;;;;;0.70;0.40;;;5.70;99.90;;;;;;21152584;28;20081;-50
2022/10/01 06:11:13;;;;;;;0.20;0.17;;;6.00;99.90;;;;;;21151779;28;20042;-51
2022/10/01 06:21:15;;;;;;;0.60;0.40;;;6.40;99.90;;;;;;21150592;28;20108;-47
2022/10/01 06:31:18;;;;;;;1.30;0.30;;;6.50;99.90;;;;;;21150311;28;20035;-51
2022/10/01 06:41:20;;;;;;;0.63;0.30;;;6.60;99.90;;;;;;21148738;28;20061;-50
2022/10/01 06:52:47;;;;;;;1.35;0.50;;;6.70;99.90;;;;;;21131460;28;20093;-48
2022/10/01 07:01:49;;;;;;;0.75;0.22;;;7.10;99.90;;;;;;21147628;28;20043;-50
2022/10/01 07:11:52;;;;;;;0.85;0.32;;;7.70;99.90;;;;;;21146110;28;20565;-49
2022/10/01 07:21:55;;;;;;;0.60;0.40;;;8.40;99.90;;;;;;21143392;28;20092;-52
2022/10/01 07:31:59;;;;;;;1.30;1.20;;;9.30;99.90;;;;;;21141511;28;20295;-52
2022/10/01 07:42:02;;;;;;;1.08;0.90;;;10.10;99.90;;;;;;21063646;28;20112;-52
2022/10/01 07:52:07;;;;;;;1.15;0.98;;;10.70;99.90;;;;;;21057295;28;20048;-61
2022/10/01 08:02:14;;;;;;;2.13;1.17;;;11.00;99.90;;;;;;21107707;28;20036;-51
2022/10/01 08:12:18;;;;;;;1.27;1.05;;;11.40;99.90;;;;;;21057300;28;20054;-51
2022/10/01 08:22:21;;;;;;;1.98;1.52;;;11.70;99.90;;;;;;21056970;28;20097;-52
2022/10/01 08:32:26;;;;;;;1.70;1.55;;;12.10;99.90;;;;;;21056969;28;20032;-53
2022/10/01 08:42:51;;;;;;;2.30;2.10;;;12.20;99.90;;;;;;21206469;28;20097;-49
2022/10/01 08:53:01;;;;;;;3.42;3.13;;;12.10;99.90;;;;;;21140609;28;20062;-52
2022/10/01 09:03:07;;;;;;;2.30;2.00;;;12.10;99.90;;;;;;21139465;28;20036;-48
2022/10/01 09:13:38;;;;;;;3.20;2.90;;;12.40;99.90;;;;;;21139477;28;20070;-50
2022/10/01 09:23:55;;;;;;;4.10;2.72;;;12.50;99.90;;;;;;21141829;28;20043;-48
2022/10/01 09:34:13;;;;;;;3.13;2.83;;;12.20;99.90;;;;;;21143767;28;20208;-60
2022/10/01 09:44:19;;;;;;;2.67;2.38;;;11.80;99.90;;;;;;21068623;28;20089;-48
2022/10/01 09:54:34;;;;;;;2.58;2.38;;;11.90;99.90;;;;;;21067320;28;20393;-51
2022/10/01 10:04:37;;;;;;;4.97;2.90;;;12.80;99.90;;;;;;21066790;28;20139;-60
2022/10/01 10:14:40;;;;;;;4.20;3.00;;;13.10;99.90;;;;;;21066401;28;20040;-50
2022/10/01 10:24:42;;;;;;;3.58;3.28;;;12.60;99.90;;;;;;21065176;28;20485;-48
2022/10/01 10:34:45;;;;;;;3.25;2.90;;;13.10;99.90;;;;;;21079499;28;20052;-50
2022/10/01 10:44:50;;;;;;;4.85;4.13;;;13.20;99.90;;;;;;21147768;28;20481;-60
2022/10/01 10:54:53;;;;;;;4.70;4.22;;;13.10;99.90;;;;;;21147150;28;20104;-49
2022/10/01 11:05:18;;;;;;;5.32;4.82;;;13.60;99.90;;;;;;21145907;28;20039;-59
2022/10/01 11:15:50;;;;;;;4.57;4.18;;;13.90;99.90;;;;;;21145880;28;20032;-59
2022/10/01 11:25:55;;;;;;;5.85;5.25;;;13.60;99.90;;;;;;21144297;28;20385;-51
2022/10/01 11:36:24;;;;;;;8.05;5.53;;;13.50;99.90;;;;;;21143611;28;20400;-49
2022/10/01 11:46:37;;;;;;;6.53;4.40;;;13.40;99.90;;;;;;21138087;28;20096;-53
2022/10/01 12:07:29;;;;;;;7.72;5.78;;;13.70;99.90;;;;;;21142050;28;20039;-59
2022/10/01 12:17:58;;;;;;;8.65;6.53;;;14.60;99.90;;;;;;21108200;28;20032;-59
2022/10/01 12:28:15;;;;;;;15.20;9.30;;;14.60;99.90;;;;;;21141149;28;20050;-52
2022/10/01 12:38:42;;;;;;;11.90;8.88;;;13.70;99.90;;;;;;21140170;28;20493;-51
2022/10/01 12:49:14;;;;;;;10.90;7.00;;;13.30;99.90;;;;;;21139534;28;20047;-63
2022/10/01 12:59:37;;;;;;;11.93;8.88;;;13.80;99.90;;;;;;21126365;28;20087;-51
2022/10/01 13:09:39;;;;;;;13.07;9.90;;;14.30;99.90;;;;;;21137013;28;20389;-48
2022/10/01 13:19:56;;;;;;;14.90;10.57;;;15.20;99.90;;;;;;21135997;28;20100;-51
2022/10/01 13:30:06;;;;;;;11.55;8.98;;;15.80;99.90;;;;;;21154182;28;20144;-60
2022/10/01 13:40:33;;;;;;;13.13;9.40;;;15.20;99.90;;;;;;21152891;28;20048;-51
2022/10/01 13:50:54;;;;;;;10.88;8.57;;;15.50;99.90;;;;;;21093379;28;20442;-52
2022/10/01 14:00:59;;;;;;;12.32;9.27;;;15.40;99.90;;;;;;21067627;28;20061;-59
2022/10/01 14:21:54;;;;;;;12.57;10.50;;;15.30;99.90;;;;;;21083494;28;20039;-51
2022/10/01 14:32:19;;;;;;;15.88;11.45;;;15.50;99.90;;;;;;21149609;28;20031;-57
2022/10/01 14:42:22;;;;;;;12.85;10.40;;;14.70;99.90;;;;;;21120182;28;20093;-50
2022/10/01 14:52:31;;;;;;;17.77;15.73;;;13.90;99.90;;;;;;21105257;28;20100;-57
2022/10/01 15:02:33;;;;;;;14.93;13.18;;;13.20;99.90;;;;;;21146338;28;20036;-52
2022/10/01 15:12:40;;;;;;;14.52;13.10;;;12.70;99.90;;;;;;21112762;28;20043;-52
2022/10/01 15:22:46;;;;;;;13.73;12.20;;;12.30;99.90;;;;;;21136738;28;20040;-51
2022/10/01 15:32:50;;;;;;;18.65;13.68;;;11.80;99.90;;;;;;21036459;28;20330;-59
2022/10/01 15:43:30;;;;;;;15.57;13.95;;;11.50;99.90;;;;;;21042455;28;20060;-48
2022/10/01 15:53:52;;;;;;;16.95;15.15;;;11.20;99.90;;;;;;21078152;28;20036;-54
2022/10/01 16:04:07;;;;;;;19.42;17.15;;;10.70;99.90;;;;;;21057742;28;20486;-58
2022/10/01 16:14:42;;;;;;;21.13;16.52;;;10.30;99.90;;;;;;21041195;28;20028;-52
2022/10/01 16:24:50;;;;;;;22.10;18.77;;;9.90;99.90;;;;;;20718725;28;20089;-57
2022/10/01 16:35:06;;;;;;;21.48;16.85;;;9.70;99.90;;;;;;20749079;28;20056;-58
2022/10/01 16:45:14;;;;;;;19.80;15.43;;;9.50;99.90;;;;;;20916064;28;20037;-50
2022/10/01 16:55:28;;;;;;;23.17;18.88;;;9.20;99.90;;;;;;20986158;27;20164;-52
2022/10/01 17:05:37;;;;;;;23.60;16.98;;;9.10;99.90;;;;;;21181534;27;20031;-53
2022/10/01 17:15:40;;;;;;;15.07;11.57;;;9.10;99.90;;;;;;21205692;27;20027;-54
2022/10/01 17:25:44;;;;;;;27.13;22.17;;;8.80;99.90;;;;;;21137577;28;20084;-53
2022/10/01 17:35:50;;;;;;;26.10;21.05;;;8.70;99.90;;;;;;21137687;27;20070;-59
2022/10/01 17:45:58;;;;;;;24.60;20.15;;;8.60;99.90;;;;;;21136109;28;20131;-51
2022/10/01 17:56:16;;;;;;;17.70;12.77;;;8.40;99.90;;;;;;21138675;27;20027;-50
2022/10/01 18:06:21;;;;;;;19.48;14.48;;;8.40;99.90;;;;;;21201253;27;20061;-56
2022/10/01 18:16:24;;;;;;;17.38;11.38;;;8.40;99.90;;;;;;21150895;28;20039;-50
2022/10/01 18:26:26;;;;;;;9.68;7.70;;;8.10;99.90;;;;;;21132443;28;20077;-51
2022/10/01 18:36:53;;;;;;;4.95;3.67;;;7.90;99.90;;;;;;21148649;28;20104;-53
2022/10/01 18:47:23;;;;;;;20.35;13.57;;;7.70;99.90;;;;;;21148372;28;20077;-50
2022/10/01 18:57:50;;;;;;;7.28;5.50;;;7.90;99.90;;;;;;21128932;28;20066;-51
2022/10/01 19:08:31;;;;;;;5.28;3.10;;;7.70;99.90;;;;;;21146157;28;20039;-57
2022/10/01 19:18:53;;;;;;;6.70;3.50;;;7.60;99.90;;;;;;21145386;28;20032;-48
2022/10/01 19:29:31;;;;;;;2.60;1.88;;;7.80;99.90;;;;;;21145025;28;20039;-51
2022/10/01 19:39:38;;;;;;;2.72;1.30;;;7.80;99.90;;;;;;21126976;28;20191;-58
2022/10/01 19:49:43;;;;;;;2.00;0.98;;;7.70;99.90;;;;;;21133123;28;20094;-52
2022/10/01 19:59:46;;;;;;;0.98;0.70;;;7.80;99.90;;;;;;21126278;28;20092;-51
2022/10/01 20:09:57;;;;;;;0.65;0.40;;;7.80;99.90;;;;;;21140927;28;20039;-51
2022/10/01 20:20:22;;;;;;;1.57;0.50;;;7.90;99.90;;;;;;21141322;28;20386;-50
2022/10/01 20:30:29;;;;;;;0.47;0.38;;;8.10;99.90;;;;;;21141557;28;20538;-52
2022/10/01 20:40:48;;;;;;;0.77;0.60;;;8.10;99.90;;;;;;21140659;28;20450;-49
2022/10/01 20:51:05;;;;;;;0.82;0.38;;;8.00;99.90;;;;;;21140342;28;20032;-54
2022/10/01 21:01:22;;;;;;;0.50;0.30;;;7.90;99.90;;;;;;21137383;28;20031;-53
2022/10/01 21:11:38;;;;;;;0.47;0.30;;;7.90;99.90;;;;;;21138424;28;20093;-51
2022/10/01 21:21:52;;;;;;;3.15;0.35;;;7.80;99.90;;;;;;21128872;28;20031;-52
2022/10/01 21:32:23;;;;;;;0.75;0.40;;;7.70;99.90;;;;;;21154721;28;20085;-51
2022/10/01 21:42:58;;;;;;;0.60;0.50;;;7.50;99.90;;;;;;20848789;28;20045;-51
2022/10/01 21:53:18;;;;;;;1.27;0.80;;;7.40;99.90;;;;;;20886622;28;20114;-49
2022/10/01 22:03:50;;;;;;;3.23;1.00;;;7.20;99.90;;;;;;20893103;28;20107;-52
2022/10/01 22:14:00;;;;;;;1.95;0.50;;;7.30;99.90;;;;;;20976363;28;20039;-48
2022/10/01 22:24:09;;;;;;;1.40;0.30;;;7.80;99.90;;;;;;21148237;28;20036;-49
2022/10/01 22:34:24;;;;;;;1.08;0.20;;;7.90;99.90;;;;;;21147784;28;20051;-53
2022/10/01 22:44:27;;;;;;;2.25;0.20;;;8.20;99.90;;;;;;21131826;28;20035;-54
2022/10/01 22:54:57;;;;;;;2.08;0.10;;;8.30;99.90;;;;;;21128364;28;20043;-50
2022/10/01 23:05:18;;;;;;;7.47;5.60;;;8.30;99.90;;;;;;21125233;28;20032;-52
2022/10/01 23:15:20;;;;;;;;;;;8.90;99.90;;;;;;21062351;28;20040;-52
2022/10/01 23:25:44;;;;;;;0.08;0.00;;;9.30;99.90;;;;;;21128215;28;19980;-51
2022/10/01 23:36:08;;;;;;;2.65;0.10;;;9.50;99.90;;;;;;21183550;27;20067;-51
2022/10/01 23:46:25;;;;;;;0.20;0.00;;;11.20;99.90;;;;;;21185063;27;20040;-50
2022/10/01 23:56:47;;;;;;;0.40;0.00;;;12.00;99.90;;;;;;21142720;28;20084;-50
